createdAt,value
2017-11-10T00:02:24.479Z,38.80
2017-11-10T00:04:53.316Z,37.47
2017-11-10T00:07:21.338Z,39.10
2017-11-10T00:09:49.389Z,36.67
2017-11-10T00:12:17.330Z,36.73
2017-11-10T00:14:45.300Z,34.97
2017-11-10T00:17:13.235Z,34.03
2017-11-10T00:19:41.233Z,34.60
2017-11-10T00:22:09.258Z,33.63
2017-11-10T00:24:37.246Z,34.43
2017-11-10T00:27:05.196Z,34.10
2017-11-10T00:29:33.201Z,33.03
2017-11-10T00:32:01.406Z,35.03
2017-11-10T00:34:29.407Z,34.20
2017-11-10T00:36:57.559Z,34.43
2017-11-10T00:39:25.505Z,34.73
2017-11-10T00:41:53.474Z,37.50
2017-11-10T00:44:21.547Z,36.47
2017-11-10T00:46:49.547Z,34.60
2017-11-10T00:49:17.500Z,36.00
2017-11-10T00:51:45.453Z,34.53
2017-11-10T00:54:13.414Z,34.37
2017-11-10T00:56:41.346Z,37.50
2017-11-10T00:59:09.293Z,34.43
2017-11-10T01:01:40.189Z,36.10
2017-11-10T01:04:08.152Z,35.87
2017-11-10T01:06:36.121Z,35.73
2017-11-10T01:09:04.121Z,34.20
2017-11-10T01:11:32.087Z,35.10
2017-11-10T01:14:00.032Z,35.90
2017-11-10T01:16:28.119Z,34.63
2017-11-10T01:18:56.094Z,32.80
2017-11-10T01:21:24.656Z,34.80
2017-11-10T01:23:52.664Z,32.67
2017-11-10T01:26:20.641Z,33.30
2017-11-10T01:28:49.397Z,32.23
2017-11-10T01:31:17.353Z,35.47
2017-11-10T01:33:45.324Z,34.83
2017-11-10T01:36:13.365Z,33.30
2017-11-10T01:38:41.361Z,31.60
2017-11-10T01:41:09.921Z,32.17
2017-11-10T01:43:38.049Z,35.50
2017-11-10T01:46:06.027Z,30.80
2017-11-10T01:48:39.545Z,32.80
2017-11-10T01:51:07.529Z,32.93
2017-11-10T01:53:35.599Z,34.33
2017-11-10T01:56:03.613Z,33.03
2017-11-10T01:58:31.569Z,36.33
2017-11-10T02:00:59.568Z,33.70
2017-11-10T02:03:27.536Z,35.17
2017-11-10T02:05:55.510Z,34.47
2017-11-10T02:08:24.169Z,33.57
2017-11-10T02:10:52.138Z,33.20
2017-11-10T02:13:20.777Z,32.73
2017-11-10T02:15:48.770Z,33.77
2017-11-10T02:18:17.476Z,32.33
2017-11-10T02:20:45.495Z,33.30
2017-11-10T02:23:13.442Z,33.53
2017-11-10T02:25:41.570Z,35.80
2017-11-10T02:28:09.558Z,33.80
2017-11-10T02:30:37.534Z,36.10
2017-11-10T02:33:05.529Z,36.27
2017-11-10T02:35:33.506Z,34.93
2017-11-10T02:38:01.496Z,36.90
2017-11-10T02:40:29.572Z,35.00
2017-11-10T02:42:57.573Z,33.97
2017-11-10T02:45:26.707Z,34.40
2017-11-10T02:47:54.661Z,37.50
2017-11-10T02:50:22.611Z,33.17
2017-11-10T02:52:50.538Z,34.33
2017-11-10T02:55:18.544Z,36.50
2017-11-10T02:57:46.539Z,33.80
2017-11-10T03:00:14.556Z,33.37
2017-11-10T03:02:42.516Z,34.17
2017-11-10T03:05:10.455Z,33.63
2017-11-10T03:07:38.427Z,31.73
2017-11-10T03:10:06.403Z,35.50
2017-11-10T03:12:34.371Z,33.90
2017-11-10T03:15:02.371Z,34.20
2017-11-10T03:17:30.403Z,33.80
2017-11-10T03:19:58.416Z,36.37
2017-11-10T03:22:26.381Z,35.70
2017-11-10T03:24:55.211Z,35.13
2017-11-10T03:27:23.189Z,35.27
2017-11-10T03:29:51.171Z,36.17
2017-11-10T03:32:19.147Z,33.57
2017-11-10T03:34:47.147Z,31.97
2017-11-10T03:37:15.260Z,32.33
2017-11-10T03:39:43.248Z,30.27
2017-11-10T03:42:11.248Z,31.80
2017-11-10T03:44:39.238Z,31.90
2017-11-10T03:47:07.168Z,30.87
2017-11-10T03:49:35.230Z,29.70
2017-11-10T03:52:03.217Z,30.77
2017-11-10T03:54:31.177Z,29.80
2017-11-10T03:56:59.145Z,32.20
2017-11-10T03:59:27.293Z,28.70
2017-11-10T04:01:55.266Z,27.63
2017-11-10T04:04:23.234Z,30.00
2017-11-10T04:06:51.200Z,29.70
2017-11-10T04:09:19.274Z,29.90
2017-11-10T04:11:47.264Z,28.70
2017-11-10T04:14:15.474Z,29.50
2017-11-10T04:16:43.411Z,25.63
2017-11-10T04:19:12.029Z,28.67
2017-11-10T04:21:39.971Z,27.27
2017-11-10T04:24:07.931Z,27.70
2017-11-10T04:26:35.900Z,25.50
2017-11-10T04:29:03.839Z,28.73
2017-11-10T04:31:31.783Z,27.60
2017-11-10T04:33:59.738Z,26.43
2017-11-10T04:36:27.673Z,30.00
2017-11-10T04:38:55.645Z,27.97
2017-11-10T04:41:23.609Z,30.07
2017-11-10T04:43:51.563Z,28.50
2017-11-10T04:46:19.525Z,29.43
2017-11-10T04:48:47.467Z,29.10
2017-11-10T04:51:15.508Z,30.03
2017-11-10T04:53:43.714Z,28.70
2017-11-10T04:56:11.763Z,27.43
2017-11-10T04:58:39.731Z,30.47
2017-11-10T05:01:07.702Z,27.90
2017-11-10T05:03:35.671Z,27.67
2017-11-10T05:06:03.693Z,28.57
2017-11-10T05:08:31.686Z,31.00
2017-11-10T05:10:59.655Z,26.27
2017-11-10T05:13:28.468Z,26.10
2017-11-10T05:15:56.411Z,27.33
2017-11-10T05:18:24.412Z,27.33
2017-11-10T05:20:52.392Z,24.70
2017-11-10T05:23:21.182Z,25.73
2017-11-10T05:25:49.702Z,25.33
2017-11-10T05:28:17.693Z,27.07
2017-11-10T05:30:45.763Z,26.87
2017-11-10T05:33:13.702Z,28.17
2017-11-10T05:35:41.644Z,29.20
2017-11-10T05:38:09.663Z,29.27
2017-11-10T05:40:37.640Z,28.30
2017-11-10T05:43:05.614Z,27.60
2017-11-10T05:45:33.570Z,31.13
2017-11-10T05:48:01.546Z,31.80
2017-11-10T05:50:29.538Z,30.93
2017-11-10T05:52:57.463Z,33.33
2017-11-10T05:55:25.428Z,34.00
2017-11-10T05:57:53.499Z,32.90
2017-11-10T06:00:21.469Z,32.43
2017-11-10T06:02:49.451Z,32.90
2017-11-10T06:05:17.413Z,34.50
2017-11-10T06:07:45.508Z,32.87
2017-11-10T06:10:13.543Z,33.80
2017-11-10T06:12:41.568Z,35.63
2017-11-10T06:15:09.598Z,36.10
2017-11-10T06:17:37.578Z,35.50
2017-11-10T06:20:05.532Z,36.03
2017-11-10T06:22:33.514Z,34.10
2017-11-10T06:25:01.560Z,33.10
2017-11-10T06:27:30.518Z,33.00
2017-11-10T06:29:58.507Z,34.03
2017-11-10T06:32:26.548Z,31.50
2017-11-10T06:34:54.520Z,33.70
2017-11-10T06:37:22.528Z,30.17
2017-11-10T06:39:50.573Z,30.57
2017-11-10T06:42:19.489Z,32.90
2017-11-10T06:44:47.553Z,30.47
2017-11-10T06:47:15.623Z,30.67
2017-11-10T06:49:43.667Z,27.27
2017-11-10T06:52:12.563Z,27.70
2017-11-10T06:54:40.568Z,27.27
2017-11-10T06:57:08.947Z,27.87
2017-11-10T06:59:37.839Z,26.57
2017-11-10T07:02:05.803Z,27.40
2017-11-10T07:04:33.777Z,25.10
2017-11-10T07:07:01.740Z,25.53
2017-11-10T07:09:29.722Z,24.73
2017-11-10T07:11:57.682Z,25.00
2017-11-10T07:14:25.659Z,23.00
2017-11-10T07:16:53.684Z,21.97
2017-11-10T07:19:21.676Z,20.90
2017-11-10T07:21:49.645Z,21.50
2017-11-10T07:24:18.227Z,20.80
2017-11-10T07:26:46.278Z,21.50
2017-11-10T07:29:14.292Z,19.53
2017-11-10T07:31:42.325Z,18.50
2017-11-10T07:34:10.601Z,19.57
2017-11-10T07:36:38.569Z,22.70
2017-11-10T07:39:06.680Z,19.60
2017-11-10T07:41:34.677Z,21.60
2017-11-10T07:44:02.768Z,23.77
2017-11-10T07:46:30.719Z,21.50
2017-11-10T07:48:59.427Z,22.23
2017-11-10T07:51:28.357Z,24.20
2017-11-10T07:53:56.473Z,22.47
2017-11-10T07:56:24.419Z,22.60
2017-11-10T07:58:52.462Z,25.07
2017-11-10T08:01:20.527Z,25.43
2017-11-10T08:03:48.569Z,25.87
2017-11-10T08:06:16.557Z,24.77
2017-11-10T08:08:44.526Z,23.67
2017-11-10T08:11:12.461Z,23.60
2017-11-10T08:13:40.468Z,24.00
2017-11-10T08:16:08.536Z,23.00
2017-11-10T08:18:36.476Z,23.97
2017-11-10T08:21:04.418Z,24.87
2017-11-10T08:23:32.422Z,24.20
2017-11-10T08:26:00.459Z,25.90
2017-11-10T08:28:28.393Z,24.53
2017-11-10T08:30:56.357Z,26.03
2017-11-10T08:33:24.350Z,23.40
2017-11-10T08:35:52.393Z,25.90
2017-11-10T08:38:20.447Z,24.20
2017-11-10T08:40:48.546Z,24.33
2017-11-10T08:43:16.559Z,27.10
2017-11-10T08:45:44.765Z,26.70
2017-11-10T08:48:12.799Z,26.60
2017-11-10T08:50:40.980Z,25.87
2017-11-10T08:53:08.947Z,24.17
2017-11-10T08:55:36.976Z,24.77
2017-11-10T08:58:04.991Z,27.17
2017-11-10T09:00:33.037Z,25.93
2017-11-10T09:03:01.048Z,26.00
2017-11-10T09:05:29.215Z,25.07
2017-11-10T09:07:57.357Z,25.57
2017-11-10T09:10:25.360Z,24.30
2017-11-10T09:12:53.604Z,50.00
2017-11-10T09:15:21.940Z,26.07
2017-11-10T09:17:50.066Z,24.67
2017-11-10T09:20:18.056Z,24.90
2017-11-10T09:22:46.178Z,25.90
2017-11-10T09:25:14.206Z,24.07
2017-11-10T09:27:42.349Z,24.00
2017-11-10T09:30:17.651Z,25.10
2017-11-10T09:32:51.402Z,24.07
2017-11-10T09:35:25.166Z,25.37
2017-11-10T09:37:57.970Z,24.77
2017-11-10T09:40:29.476Z,23.63
2017-11-10T09:43:04.504Z,25.30
2017-11-10T09:48:41.838Z,24.70
2017-11-10T09:51:15.859Z,24.07
2017-11-10T09:53:59.675Z,23.83
2017-11-10T09:56:34.352Z,22.07
2017-11-10T09:59:20.658Z,20.57
2017-11-10T10:02:06.615Z,23.20
2017-11-10T10:04:39.323Z,23.97
2017-11-10T10:07:13.259Z,23.43
2017-11-10T10:09:47.019Z,22.40
2017-11-10T10:12:21.224Z,23.60
2017-11-10T10:14:54.912Z,22.43
2017-11-10T10:17:28.678Z,20.57
2017-11-10T10:20:02.520Z,21.03
2017-11-10T10:22:30.616Z,21.40
2017-11-10T10:24:58.740Z,21.00
2017-11-10T10:27:26.737Z,21.30
2017-11-10T10:29:54.810Z,31.27
2017-11-10T10:32:22.935Z,22.00
2017-11-10T10:34:50.928Z,18.77
2017-11-10T10:37:19.024Z,19.50
2017-11-10T10:39:47.416Z,19.90
2017-11-10T10:42:15.429Z,19.10
2017-11-10T10:44:43.374Z,20.37
2017-11-10T10:47:11.474Z,18.53
2017-11-10T10:49:39.518Z,17.47
2017-11-10T10:52:07.760Z,20.67
2017-11-10T10:54:35.832Z,17.43
2017-11-10T10:57:03.863Z,16.97
2017-11-10T10:59:31.909Z,17.40
2017-11-10T11:01:59.864Z,15.43
2017-11-10T11:04:27.888Z,17.00
2017-11-10T11:06:56.605Z,16.37
2017-11-10T11:09:24.610Z,15.30
2017-11-10T11:11:52.642Z,15.50
2017-11-10T11:14:20.656Z,16.70
2017-11-10T11:16:48.733Z,17.70
2017-11-10T11:19:16.716Z,16.23
2017-11-10T11:21:44.873Z,16.50
2017-11-10T11:24:13.026Z,17.23
2017-11-10T11:26:41.589Z,15.47
2017-11-10T11:29:09.592Z,29.17
2017-11-10T11:31:37.707Z,15.70
2017-11-10T11:34:05.735Z,16.43
2017-11-10T11:36:33.776Z,14.67
2017-11-10T11:39:01.792Z,14.60
2017-11-10T11:41:29.893Z,15.53
2017-11-10T11:43:57.972Z,15.30
2017-11-10T11:46:26.008Z,16.00
2017-11-10T11:48:54.028Z,13.93
2017-11-10T11:51:22.182Z,15.40
2017-11-10T11:53:50.240Z,14.37
2017-11-10T11:56:18.290Z,14.10
2017-11-10T11:58:46.297Z,14.67
2017-11-10T12:01:15.057Z,14.17
2017-11-10T12:03:43.078Z,17.37
2017-11-10T12:06:11.048Z,15.90
2017-11-10T12:08:39.057Z,15.57
2017-11-10T12:11:08.224Z,18.43
2017-11-10T12:13:36.181Z,19.30
2017-11-10T12:16:04.404Z,19.27
2017-11-10T12:18:33.252Z,18.80
2017-11-10T12:21:01.193Z,19.07
2017-11-10T12:23:29.229Z,19.37
2017-11-10T12:25:57.336Z,21.10
2017-11-10T12:28:25.301Z,19.60
2017-11-10T12:30:53.234Z,18.60
2017-11-10T12:33:21.260Z,19.37
2017-11-10T12:35:49.436Z,18.87
2017-11-10T12:38:17.509Z,19.43
2017-11-10T12:40:45.482Z,19.80
2017-11-10T12:43:13.593Z,20.00
2017-11-10T12:45:41.668Z,20.70
2017-11-10T12:48:10.353Z,19.87
2017-11-10T12:50:38.428Z,18.70
2017-11-10T12:53:06.391Z,18.60
2017-11-10T12:55:34.403Z,17.70
2017-11-10T12:58:02.440Z,19.03
2017-11-10T13:00:30.508Z,19.63
2017-11-10T13:02:58.507Z,17.50
2017-11-10T13:05:26.546Z,18.93
2017-11-10T13:07:54.923Z,19.50
2017-11-10T13:10:22.925Z,17.70
2017-11-10T13:12:51.000Z,17.17
2017-11-10T13:15:19.052Z,16.77
2017-11-10T13:17:47.552Z,16.70
2017-11-10T13:20:15.530Z,17.57
2017-11-10T13:22:43.715Z,16.80
2017-11-10T13:25:11.906Z,16.50
2017-11-10T13:27:40.325Z,17.27
2017-11-10T13:30:08.435Z,18.03
2017-11-10T13:32:36.412Z,20.30
2017-11-10T13:35:04.420Z,19.63
2017-11-10T13:37:32.453Z,19.00
2017-11-10T13:40:00.574Z,18.23
2017-11-10T13:42:28.736Z,17.20
2017-11-10T13:44:56.783Z,16.70
2017-11-10T13:47:24.775Z,16.57
2017-11-10T13:49:52.796Z,15.57
2017-11-10T13:52:20.784Z,13.80
2017-11-10T13:54:48.970Z,13.50
2017-11-10T13:57:17.039Z,11.60
2017-11-10T13:59:45.189Z,12.60
2017-11-10T14:02:13.251Z,12.17
2017-11-10T14:04:41.318Z,12.03
2017-11-10T14:07:09.327Z,12.07
2017-11-10T14:09:37.401Z,12.50
2017-11-10T14:12:05.353Z,14.50
2017-11-10T14:14:33.813Z,12.50
2017-11-10T14:17:01.824Z,12.43
2017-11-10T14:19:30.177Z,11.80
2017-11-10T14:21:58.217Z,13.70
2017-11-10T14:24:26.289Z,12.67
2017-11-10T14:26:54.301Z,13.10
2017-11-10T14:29:22.371Z,12.67
2017-11-10T14:31:50.448Z,11.30
2017-11-10T14:34:18.621Z,13.10
2017-11-10T14:36:46.996Z,12.30
2017-11-10T14:39:15.048Z,10.40
2017-11-10T14:41:43.424Z,10.53
2017-11-10T14:44:11.622Z,11.47
2017-11-10T14:46:39.813Z,8.60
2017-11-10T14:49:08.127Z,8.00
2017-11-10T14:51:36.235Z,6.70
2017-11-10T14:54:04.296Z,4.67
2017-11-10T14:56:32.258Z,3.70
2017-11-10T14:59:00.209Z,3.33
2017-11-10T15:01:28.117Z,3.80
2017-11-10T15:03:56.127Z,3.50
2017-11-10T15:06:24.077Z,3.57
2017-11-10T15:08:52.078Z,3.83
2017-11-10T15:11:20.040Z,3.50
2017-11-10T15:13:47.987Z,3.30
2017-11-10T15:16:15.995Z,3.27
2017-11-10T15:18:44.084Z,3.83
2017-11-10T15:21:12.048Z,3.23
2017-11-10T15:23:40.466Z,3.33
2017-11-10T15:26:09.693Z,2.90
2017-11-10T15:28:37.830Z,3.77
2017-11-10T15:31:05.768Z,3.87
2017-11-10T15:33:33.743Z,2.87
2017-11-10T15:36:01.705Z,3.10
2017-11-10T15:38:29.675Z,3.10
2017-11-10T15:40:57.641Z,2.63
2017-11-10T15:43:25.637Z,2.50
2017-11-10T15:45:54.610Z,2.50
2017-11-10T15:48:22.546Z,1.87
2017-11-10T15:50:50.480Z,2.17
2017-11-10T15:53:18.480Z,1.63
2017-11-10T15:55:46.434Z,1.73
2017-11-10T15:58:14.740Z,1.23
2017-11-10T16:00:42.841Z,1.70
2017-11-10T16:03:10.784Z,2.00
2017-11-10T16:05:38.749Z,2.50
2017-11-10T16:08:06.769Z,1.80
2017-11-10T16:10:34.737Z,2.13
2017-11-10T16:13:02.656Z,2.13
2017-11-10T16:15:30.595Z,1.90
2017-11-10T16:17:58.556Z,1.80
2017-11-10T16:20:27.731Z,2.00
2017-11-10T16:22:55.725Z,2.87
2017-11-10T16:25:24.071Z,2.30
2017-11-10T16:27:52.531Z,3.10
2017-11-10T16:30:20.471Z,1.70
2017-11-10T16:32:48.384Z,3.00
2017-11-10T16:35:18.403Z,2.40
2017-11-10T16:37:46.587Z,1.97
2017-11-10T16:40:14.575Z,2.20
2017-11-10T16:42:42.504Z,1.93
2017-11-10T16:45:10.495Z,2.20
2017-11-10T16:47:38.442Z,2.33
2017-11-10T16:50:06.514Z,2.20
2017-11-10T16:52:34.632Z,2.60
2017-11-10T16:55:02.600Z,2.50
2017-11-10T16:57:30.608Z,2.60
2017-11-10T16:59:58.575Z,2.33
2017-11-10T17:02:26.599Z,2.73
2017-11-10T17:04:54.630Z,2.97
2017-11-10T17:07:22.639Z,3.27
2017-11-10T17:09:50.766Z,2.93
2017-11-10T17:12:18.940Z,2.50
2017-11-10T17:14:47.236Z,3.20
2017-11-10T17:17:15.178Z,3.20
2017-11-10T17:19:43.172Z,3.40
2017-11-10T17:22:11.188Z,3.50
2017-11-10T17:24:40.237Z,2.67
2017-11-10T17:27:08.293Z,2.60
2017-11-10T17:29:36.324Z,2.40
2017-11-10T17:32:10.230Z,2.30
2017-11-10T17:34:43.936Z,3.83
2017-11-10T17:37:17.477Z,2.53
2017-11-10T17:39:51.173Z,3.93
2017-11-10T17:42:25.460Z,3.37
2017-11-10T17:44:59.317Z,3.13
2017-11-10T17:47:34.010Z,2.33
2017-11-10T17:50:07.774Z,4.27
2017-11-10T17:52:41.720Z,2.97
2017-11-10T17:55:15.390Z,2.77
2017-11-10T17:57:49.028Z,10.47
2017-11-10T18:00:22.632Z,10.90
2017-11-10T18:02:56.320Z,3.00
2017-11-10T18:05:30.375Z,3.43
2017-11-10T18:08:04.585Z,3.70
2017-11-10T18:10:39.956Z,3.10
2017-11-10T18:13:13.536Z,2.50
2017-11-10T18:15:47.761Z,3.43
2017-11-10T18:18:21.355Z,2.50
2017-11-10T18:20:55.060Z,3.77
2017-11-10T18:23:28.757Z,2.40
2017-11-10T18:26:02.742Z,3.53
2017-11-10T18:28:36.529Z,2.33
2017-11-10T18:31:10.039Z,2.77
2017-11-10T18:33:44.470Z,3.63
2017-11-10T18:36:19.217Z,3.63
2017-11-10T18:38:52.788Z,2.90
2017-11-10T18:41:26.554Z,3.20
2017-11-10T18:44:00.145Z,2.90
2017-11-10T18:46:34.070Z,4.20
2017-11-10T18:49:13.204Z,3.00
2017-11-10T18:51:49.563Z,1.73
2017-11-10T18:54:23.448Z,2.80
2017-11-10T18:56:58.082Z,2.80
2017-11-10T18:59:31.603Z,2.70
2017-11-10T19:02:05.288Z,2.53
2017-11-10T19:04:39.152Z,2.60
2017-11-10T19:07:12.817Z,2.63
2017-11-10T19:09:46.564Z,1.90
2017-11-10T19:12:20.654Z,2.30
2017-11-10T19:14:54.929Z,2.47
2017-11-10T19:17:28.517Z,3.03
2017-11-10T19:20:02.030Z,3.23
2017-11-10T19:22:35.587Z,2.87
2017-11-10T19:25:09.231Z,2.40
2017-11-10T19:27:38.078Z,2.40
2017-11-10T19:30:06.045Z,2.47
2017-11-10T19:32:34.215Z,2.40
2017-11-10T19:35:02.379Z,1.93
2017-11-10T19:37:30.366Z,2.07
2017-11-10T19:40:06.160Z,2.37
2017-11-10T19:42:34.198Z,2.10
2017-11-10T19:45:02.236Z,2.07
2017-11-10T19:47:30.230Z,1.73
2017-11-10T19:49:58.307Z,1.80
2017-11-10T19:52:26.374Z,1.43
2017-11-10T19:54:54.966Z,1.73
2017-11-10T19:57:22.937Z,1.57
2017-11-10T19:59:50.964Z,1.60
2017-11-10T20:02:19.063Z,1.57
2017-11-10T20:04:47.108Z,2.20
2017-11-10T20:07:16.753Z,2.23
2017-11-10T20:09:44.723Z,2.17
2017-11-10T20:12:12.729Z,3.17
2017-11-10T20:14:40.660Z,1.60
2017-11-10T20:17:08.861Z,1.60
2017-11-10T20:19:36.881Z,1.27
2017-11-10T20:22:04.892Z,2.10
2017-11-10T20:24:32.884Z,1.70
2017-11-10T20:27:01.605Z,2.23
2017-11-10T20:29:29.606Z,1.60
2017-11-10T20:31:57.569Z,1.87
2017-11-10T20:34:26.401Z,2.17
2017-11-10T20:36:54.389Z,1.03
2017-11-10T20:39:22.358Z,1.50
2017-11-10T20:41:50.295Z,1.30
2017-11-10T20:44:19.028Z,1.70
2017-11-10T20:46:47.028Z,1.30
2017-11-10T20:49:15.218Z,1.70
2017-11-10T20:51:43.486Z,1.40
2017-11-10T20:54:11.479Z,1.80
2017-11-10T20:56:39.445Z,1.60
2017-11-10T20:59:07.447Z,3.10
2017-11-10T21:01:35.444Z,1.60
2017-11-10T21:04:03.434Z,1.33
2017-11-10T21:06:31.412Z,1.23
2017-11-10T21:08:59.422Z,1.73
2017-11-10T21:11:27.392Z,1.40
2017-11-10T21:13:55.422Z,1.70
2017-11-10T21:16:23.737Z,1.60
2017-11-10T21:18:51.723Z,1.30
2017-11-10T21:21:19.660Z,1.30
2017-11-10T21:23:47.608Z,1.53
2017-11-10T21:26:15.556Z,1.57
2017-11-10T21:28:43.582Z,1.10
2017-11-10T21:31:11.516Z,1.77
2017-11-10T21:33:39.935Z,1.90
2017-11-10T21:36:07.924Z,1.10
2017-11-10T21:38:36.169Z,1.70
2017-11-10T21:41:04.143Z,1.30
2017-11-10T21:43:32.080Z,1.70
2017-11-10T21:46:00.079Z,8.30
2017-11-10T21:48:28.027Z,1.77
2017-11-10T21:50:55.988Z,2.03
2017-11-10T21:53:23.899Z,1.83
2017-11-10T21:55:51.932Z,1.37
2017-11-10T21:58:19.930Z,1.80
2017-11-10T22:00:48.000Z,2.50
2017-11-10T22:03:16.039Z,1.73
2017-11-10T22:05:43.986Z,14.53
2017-11-10T22:08:12.545Z,9.83
2017-11-10T22:10:40.534Z,2.57
2017-11-10T22:13:08.523Z,1.33
2017-11-10T22:15:36.471Z,1.90
2017-11-10T22:18:04.555Z,1.53
2017-11-10T22:20:32.531Z,1.90
2017-11-10T22:23:00.452Z,2.00
2017-11-10T22:25:28.428Z,1.40
2017-11-10T22:27:56.485Z,1.33
2017-11-10T22:30:24.531Z,1.80
2017-11-10T22:32:52.529Z,1.70
2017-11-10T22:35:20.481Z,1.17
2017-11-10T22:37:48.482Z,1.20
2017-11-10T22:40:16.414Z,1.30
2017-11-10T22:42:44.339Z,1.17
2017-11-10T22:45:12.274Z,1.40
2017-11-10T22:47:40.373Z,1.00
2017-11-10T22:50:08.350Z,1.40
2017-11-10T22:52:36.330Z,1.67
2017-11-10T22:55:04.249Z,1.33
2017-11-10T22:57:32.206Z,0.90
2017-11-10T23:00:00.121Z,1.10
2017-11-10T23:02:28.092Z,1.27
2017-11-10T23:04:56.028Z,1.00
2017-11-10T23:07:23.945Z,0.90
2017-11-10T23:09:52.930Z,0.87
2017-11-10T23:12:20.871Z,1.13
2017-11-10T23:14:48.860Z,1.17
2017-11-10T23:17:16.822Z,1.23
2017-11-10T23:19:44.843Z,1.17
2017-11-10T23:22:12.785Z,1.00
2017-11-10T23:24:40.800Z,1.17
2017-11-10T23:27:08.802Z,1.10
2017-11-10T23:29:37.572Z,1.07
2017-11-10T23:32:05.551Z,0.90
2017-11-10T23:34:33.501Z,0.97
2017-11-10T23:37:01.462Z,1.10
2017-11-10T23:39:29.409Z,1.27
2017-11-10T23:41:57.527Z,1.30
2017-11-10T23:44:25.454Z,2.33
2017-11-10T23:46:53.655Z,0.80
2017-11-10T23:49:21.583Z,1.77
2017-11-10T23:51:49.656Z,1.83
2017-11-10T23:54:17.595Z,1.00
2017-11-10T23:56:45.600Z,1.97
2017-11-10T23:59:13.608Z,1.10
